Time;durP1;ratioP1;P1;durP2;ratioP2;P2;SDS_P1;SDS_P2;PMS_P1;PMS_P2;Temp;Humidity;BMP_temperature;BMP_pressure;BME280_temperature;BME280_humidity;BME280_pressure;Samples;Min_cycle;Max_cycle;Signal;HPM_P1;HPM_P2
2023/12/22 00:01:57;;;;;;;9.35;3.55;;;7.20;98.10;;;;;;6212711;23;20095;-64
2023/12/22 00:04:43;;;;;;;6.80;2.63;;;7.20;98.10;;;;;;6211709;23;20098;-64
2023/12/22 00:07:29;;;;;;;7.25;2.47;;;7.10;98.20;;;;;;6211578;23;20005;-64
2023/12/22 00:10:15;;;;;;;7.63;2.10;;;7.10;97.80;;;;;;6191679;23;20433;-64
2023/12/22 00:13:01;;;;;;;5.90;2.40;;;7.00;97.80;;;;;;6211045;23;20024;-64
2023/12/22 00:15:47;;;;;;;12.05;2.72;;;7.00;97.50;;;;;;6211119;23;20074;-64
2023/12/22 00:18:32;;;;;;;8.20;2.85;;;7.00;97.70;;;;;;6191911;23;20032;-64
2023/12/22 00:21:18;;;;;;;10.88;2.72;;;6.90;97.70;;;;;;6211398;23;20008;-64
2023/12/22 00:24:05;;;;;;;7.68;2.58;;;6.90;97.70;;;;;;6209672;23;20032;-63
2023/12/22 00:26:50;;;;;;;11.82;2.45;;;6.90;97.60;;;;;;6213012;23;20047;-64
2023/12/22 00:29:37;;;;;;;7.20;3.17;;;6.90;97.40;;;;;;6210474;23;20232;-64
2023/12/22 00:32:23;;;;;;;14.73;4.18;;;6.80;97.40;;;;;;6212668;23;20055;-64
2023/12/22 00:35:09;;;;;;;13.52;4.35;;;6.80;97.20;;;;;;6210394;23;20012;-64
2023/12/22 00:37:55;;;;;;;11.45;2.83;;;6.80;97.10;;;;;;6210576;23;20099;-64
2023/12/22 00:40:41;;;;;;;14.02;2.50;;;6.80;97.20;;;;;;6211870;23;20015;-64
2023/12/22 00:43:26;;;;;;;15.48;4.85;;;6.80;97.00;;;;;;6211021;23;20020;-63
2023/12/22 00:46:13;;;;;;;6.65;2.38;;;6.80;96.80;;;;;;6210646;23;20012;-63
2023/12/22 00:48:59;;;;;;;8.88;2.67;;;6.80;96.70;;;;;;6211913;23;20015;-63
2023/12/22 00:51:45;;;;;;;8.30;3.65;;;6.90;96.60;;;;;;6211223;23;20013;-62
2023/12/22 00:54:31;;;;;;;11.07;3.33;;;6.90;96.80;;;;;;6211229;23;20099;-62
2023/12/22 00:57:17;;;;;;;10.70;2.95;;;6.80;96.50;;;;;;6212193;23;20442;-63
2023/12/22 01:00:05;;;;;;;11.13;2.83;;;6.90;96.70;;;;;;6210574;23;20051;-63
2023/12/22 01:02:51;;;;;;;8.68;3.22;;;6.90;96.80;;;;;;6211079;23;20441;-63
2023/12/22 01:05:37;;;;;;;13.40;3.80;;;6.90;96.90;;;;;;6211102;23;20345;-64
2023/12/22 01:08:23;;;;;;;11.93;3.08;;;6.90;96.90;;;;;;6210762;23;20044;-63
2023/12/22 01:11:09;;;;;;;7.97;2.75;;;6.90;96.90;;;;;;6209535;23;20524;-63
2023/12/22 01:13:55;;;;;;;9.32;2.92;;;7.00;97.10;;;;;;6210652;23;20116;-62
2023/12/22 01:16:41;;;;;;;5.07;2.30;;;6.90;97.10;;;;;;6210691;23;20091;-62
2023/12/22 01:19:27;;;;;;;6.53;2.70;;;6.90;97.20;;;;;;6190464;23;20078;-65
2023/12/22 01:22:13;;;;;;;9.05;2.97;;;6.80;97.30;;;;;;6210402;23;20364;-63
2023/12/22 01:24:59;;;;;;;5.90;2.45;;;6.80;97.40;;;;;;6211237;23;20084;-64
2023/12/22 01:27:47;;;;;;;8.63;3.10;;;6.80;97.50;;;;;;6211320;23;20019;-63
2023/12/22 01:30:33;;;;;;;6.88;2.58;;;6.80;97.60;;;;;;6190961;23;20012;-63
2023/12/22 01:33:19;;;;;;;13.45;4.03;;;6.80;97.70;;;;;;6210492;23;20017;-62
2023/12/22 01:36:05;;;;;;;8.55;2.58;;;6.80;97.70;;;;;;6190627;23;20496;-63
2023/12/22 01:38:51;;;;;;;6.18;2.75;;;6.80;97.80;;;;;;6211256;23;20017;-63
2023/12/22 01:41:37;;;;;;;11.82;2.78;;;6.80;97.80;;;;;;6210745;23;20067;-63
2023/12/22 01:44:23;;;;;;;10.13;2.47;;;6.80;97.90;;;;;;6210603;23;20079;-63
2023/12/22 01:47:09;;;;;;;6.18;2.25;;;6.80;97.90;;;;;;6211357;23;20028;-64
2023/12/22 01:49:55;;;;;;;12.20;2.92;;;6.80;98.00;;;;;;6200811;23;20432;-64
2023/12/22 01:52:42;;;;;;;5.68;2.72;;;6.80;98.00;;;;;;6210672;23;20009;-64
2023/12/22 01:55:29;;;;;;;9.27;2.95;;;6.80;98.00;;;;;;6210583;23;20012;-64
2023/12/22 01:58:15;;;;;;;7.45;2.50;;;6.80;98.00;;;;;;6211780;23;20439;-63
2023/12/22 02:01:02;;;;;;;8.13;3.25;;;6.80;98.10;;;;;;6210625;23;20015;-64
2023/12/22 02:03:53;;;;;;;8.30;2.58;;;6.80;98.10;;;;;;6210677;23;20013;-64
2023/12/22 02:06:39;;;;;;;12.90;3.30;;;6.80;98.10;;;;;;6210926;23;20079;-65
2023/12/22 02:09:25;;;;;;;10.15;2.90;;;6.80;98.10;;;;;;6210409;23;20417;-64
2023/12/22 02:12:11;;;;;;;9.75;3.08;;;6.80;98.20;;;;;;6210307;23;20356;-64
2023/12/22 02:14:57;;;;;;;8.48;3.13;;;6.80;98.20;;;;;;6210401;23;20013;-64
2023/12/22 02:17:45;;;;;;;12.00;3.10;;;6.80;98.20;;;;;;6210150;23;20044;-64
2023/12/22 02:20:32;;;;;;;10.73;2.38;;;6.90;98.30;;;;;;6209480;23;20013;-64
2023/12/22 02:23:18;;;;;;;9.25;2.45;;;6.80;98.30;;;;;;6209895;23;20044;-64
2023/12/22 02:26:27;;;;;;;8.25;2.83;;;6.80;98.20;;;;;;6210975;23;20095;-64
2023/12/22 02:29:15;;;;;;;10.38;2.80;;;6.80;98.20;;;;;;6210111;23;20017;-64
2023/12/22 02:32:10;;;;;;;7.07;2.45;;;6.80;98.30;;;;;;6210783;23;20016;-64
2023/12/22 02:34:57;;;;;;;5.53;2.22;;;6.80;98.30;;;;;;6210354;23;20459;-64
2023/12/22 02:37:46;;;;;;;6.30;2.55;;;6.70;98.30;;;;;;6208982;23;20412;-65
2023/12/22 02:40:34;;;;;;;8.75;3.55;;;6.70;98.30;;;;;;6208443;23;20008;-64
2023/12/22 02:43:20;;;;;;;7.22;2.30;;;6.60;98.30;;;;;;6210216;23;20009;-64
2023/12/22 02:46:13;;;;;;;9.45;2.70;;;6.50;98.40;;;;;;6209134;23;20015;-64
2023/12/22 02:48:59;;;;;;;5.00;2.13;;;6.60;98.70;;;;;;6210248;23;20016;-64
2023/12/22 02:51:45;;;;;;;5.53;2.17;;;6.60;98.50;;;;;;6210261;23;20344;-64
2023/12/22 02:54:32;;;;;;;8.07;2.45;;;6.60;98.60;;;;;;6210173;23;20066;-64
2023/12/22 02:57:18;;;;;;;5.72;2.42;;;6.60;98.60;;;;;;6210453;23;20017;-64
2023/12/22 03:00:05;;;;;;;5.18;2.22;;;6.60;98.60;;;;;;6211068;23;20012;-65
2023/12/22 03:02:51;;;;;;;9.60;2.63;;;6.60;98.50;;;;;;6197910;23;20027;-65
2023/12/22 03:05:37;;;;;;;9.48;2.33;;;6.60;98.50;;;;;;6209668;23;20035;-64
2023/12/22 03:08:23;;;;;;;12.63;2.10;;;6.60;98.50;;;;;;6209986;23;20005;-64
2023/12/22 03:11:09;;;;;;;13.27;3.30;;;6.50;98.50;;;;;;6209926;23;20005;-64
2023/12/22 03:13:55;;;;;;;3.95;2.28;;;6.50;98.50;;;;;;6198313;23;20067;-64
2023/12/22 03:16:41;;;;;;;4.22;1.75;;;6.50;98.50;;;;;;6209835;23;20400;-64
2023/12/22 03:19:27;;;;;;;3.22;1.80;;;6.50;98.50;;;;;;6209823;23;20013;-63
2023/12/22 03:22:13;;;;;;;3.17;1.40;;;6.40;98.50;;;;;;6210193;23;20099;-63
2023/12/22 03:24:59;;;;;;;5.30;1.80;;;6.40;98.50;;;;;;6210364;23;20009;-63
2023/12/22 03:27:44;;;;;;;5.43;1.95;;;6.40;98.60;;;;;;6210341;23;20016;-63
2023/12/22 03:30:30;;;;;;;6.05;1.67;;;6.40;98.70;;;;;;6210322;23;20004;-63
2023/12/22 03:33:16;;;;;;;5.15;1.90;;;6.30;98.70;;;;;;6187953;23;20088;-63
2023/12/22 03:36:02;;;;;;;8.02;1.92;;;6.30;98.70;;;;;;6210243;23;20008;-64
2023/12/22 03:38:48;;;;;;;7.15;3.05;;;6.30;98.70;;;;;;6211356;23;20066;-63
2023/12/22 03:41:34;;;;;;;5.22;1.55;;;6.30;98.80;;;;;;6212312;23;20001;-63
2023/12/22 03:44:20;;;;;;;7.60;2.13;;;6.30;98.80;;;;;;6212075;23;20013;-63
2023/12/22 03:47:07;;;;;;;5.50;1.90;;;6.30;98.80;;;;;;6212092;23;20039;-64
2023/12/22 03:49:53;;;;;;;8.15;2.38;;;6.20;98.80;;;;;;6212384;23;20016;-64
2023/12/22 03:52:39;;;;;;;8.52;2.65;;;6.30;98.90;;;;;;6211480;23;20039;-64
2023/12/22 03:55:25;;;;;;;6.25;2.13;;;6.30;98.90;;;;;;6212141;23;20012;-64
2023/12/22 03:58:11;;;;;;;3.63;2.22;;;6.30;98.90;;;;;;6211392;23;20024;-64
2023/12/22 04:00:57;;;;;;;4.72;2.25;;;6.30;98.90;;;;;;6211258;23;20477;-64
2023/12/22 04:03:42;;;;;;;5.20;2.08;;;6.30;98.90;;;;;;6211562;23;20444;-64
2023/12/22 04:06:29;;;;;;;6.32;1.65;;;6.30;99.00;;;;;;6210949;23;20449;-65
2023/12/22 04:09:14;;;;;;;5.45;1.38;;;6.40;99.10;;;;;;6211859;23;20437;-65
2023/12/22 04:12:00;;;;;;;1.75;1.10;;;6.30;99.10;;;;;;6211495;23;20046;-65
2023/12/22 04:14:46;;;;;;;1.60;0.80;;;6.30;99.10;;;;;;6210786;23;20016;-66
2023/12/22 04:17:32;;;;;;;3.75;1.60;;;6.40;99.10;;;;;;6212246;23;20027;-64
2023/12/22 04:20:18;;;;;;;3.42;0.88;;;6.30;99.20;;;;;;6211255;23;20009;-64
2023/12/22 04:23:04;;;;;;;2.35;1.30;;;6.40;99.20;;;;;;6211271;23;20020;-64
2023/12/22 04:25:50;;;;;;;3.05;0.88;;;6.40;99.20;;;;;;6210797;23;20016;-63
2023/12/22 04:28:36;;;;;;;2.80;1.10;;;6.40;99.30;;;;;;6212638;23;20052;-64
2023/12/22 04:31:23;;;;;;;1.70;0.85;;;6.30;99.40;;;;;;6211383;23;20041;-64
2023/12/22 04:34:09;;;;;;;5.25;1.02;;;6.30;99.40;;;;;;6211950;23;20023;-63
2023/12/22 04:36:54;;;;;;;2.60;1.33;;;6.30;99.50;;;;;;6199135;23;20249;-63
2023/12/22 04:39:40;;;;;;;3.10;1.30;;;6.30;99.60;;;;;;6210130;23;20009;-64
2023/12/22 04:42:27;;;;;;;3.80;1.55;;;6.30;99.70;;;;;;6212328;23;20378;-65
2023/12/22 04:45:13;;;;;;;4.82;2.55;;;6.20;99.70;;;;;;6212989;23;20024;-65
2023/12/22 04:47:59;;;;;;;3.17;1.40;;;6.20;99.90;;;;;;6210971;23;20055;-65
2023/12/22 04:50:45;;;;;;;3.47;1.27;;;6.20;99.90;;;;;;6210531;23;20013;-65
2023/12/22 04:53:31;;;;;;;5.50;2.13;;;6.20;99.90;;;;;;6210467;23;20012;-65
2023/12/22 04:56:16;;;;;;;4.40;1.80;;;6.10;99.90;;;;;;6211046;23;20005;-65
2023/12/22 04:59:02;;;;;;;1.55;1.00;;;6.20;99.90;;;;;;6210583;23;20032;-65
2023/12/22 05:01:49;;;;;;;2.63;0.95;;;6.20;99.90;;;;;;6209151;23;20448;-65
2023/12/22 05:04:34;;;;;;;2.40;1.17;;;6.20;99.90;;;;;;6211507;23;20009;-66
2023/12/22 05:07:20;;;;;;;3.85;1.17;;;6.20;99.90;;;;;;6210710;23;20013;-69
2023/12/22 05:10:07;;;;;;;3.55;1.08;;;6.20;99.90;;;;;;6209451;23;20012;-67
2023/12/22 05:12:54;;;;;;;1.67;1.00;;;6.10;99.90;;;;;;6211288;23;20079;-67
2023/12/22 05:15:40;;;;;;;1.25;0.70;;;6.10;99.90;;;;;;6212118;23;20011;-64
2023/12/22 05:18:26;;;;;;;1.38;0.80;;;6.00;99.90;;;;;;6207779;23;20396;-64
2023/12/22 05:21:15;;;;;;;2.22;1.10;;;6.00;99.90;;;;;;6211976;23;20001;-64
2023/12/22 05:24:01;;;;;;;3.78;1.13;;;5.90;99.90;;;;;;6210514;23;20041;-64
2023/12/22 05:26:47;;;;;;;1.88;1.20;;;5.90;99.90;;;;;;6189864;23;20009;-64
2023/12/22 05:29:33;;;;;;;1.67;0.90;;;5.90;99.90;;;;;;6208318;23;20303;-64
2023/12/22 05:32:18;;;;;;;2.17;1.00;;;5.80;99.90;;;;;;6211312;23;20016;-64
2023/12/22 05:35:05;;;;;;;3.63;1.23;;;5.70;99.90;;;;;;6211489;23;20228;-64
2023/12/22 05:37:51;;;;;;;4.80;1.20;;;5.70;99.90;;;;;;6210980;23;20020;-64
2023/12/22 05:40:37;;;;;;;3.70;1.17;;;5.70;99.90;;;;;;6190927;23;20005;-63
2023/12/22 05:43:23;;;;;;;3.92;1.70;;;5.70;99.90;;;;;;6210450;23;20107;-63
2023/12/22 05:46:09;;;;;;;2.42;1.25;;;5.70;99.90;;;;;;6209976;23;20039;-63
2023/12/22 05:48:59;;;;;;;3.20;1.30;;;5.60;99.90;;;;;;6213489;23;20504;-63
2023/12/22 05:51:45;;;;;;;1.75;1.00;;;5.60;99.90;;;;;;6208084;23;20098;-64
2023/12/22 05:54:30;;;;;;;2.38;1.02;;;5.60;99.90;;;;;;6210579;23;20009;-63
2023/12/22 05:57:16;;;;;;;2.22;1.20;;;5.60;99.90;;;;;;6209640;23;20051;-63
2023/12/22 06:00:07;;;;;;;2.58;1.13;;;5.60;99.90;;;;;;6210256;23;20468;-63
2023/12/22 06:02:53;;;;;;;6.00;1.73;;;5.60;99.90;;;;;;6198653;23;20372;-69
2023/12/22 06:05:39;;;;;;;4.13;1.70;;;5.50;99.90;;;;;;6211399;23;20012;-67
2023/12/22 06:08:25;;;;;;;4.13;1.95;;;5.50;99.90;;;;;;6188940;23;20005;-65
2023/12/22 06:11:10;;;;;;;4.05;1.70;;;5.50;99.90;;;;;;6210076;23;20016;-65
2023/12/22 06:13:56;;;;;;;7.18;1.35;;;5.50;99.90;;;;;;6211066;23;20001;-65
2023/12/22 06:16:42;;;;;;;2.88;1.67;;;5.50;99.90;;;;;;6208410;23;20012;-64
2023/12/22 06:19:30;;;;;;;7.93;1.45;;;5.50;99.90;;;;;;6209707;23;20027;-64
2023/12/22 06:22:16;;;;;;;4.63;1.42;;;5.50;99.90;;;;;;6210400;23;20009;-65
2023/12/22 06:25:07;;;;;;;3.75;1.15;;;5.50;99.90;;;;;;6210207;23;20012;-65
2023/12/22 06:27:53;;;;;;;4.28;1.52;;;5.50;99.90;;;;;;6209791;23;20067;-65
2023/12/22 06:30:38;;;;;;;3.72;0.95;;;5.40;99.90;;;;;;6209786;23;20017;-65
2023/12/22 06:33:24;;;;;;;4.45;1.33;;;5.50;99.90;;;;;;6210294;23;20008;-64
2023/12/22 06:36:20;;;;;;;4.40;2.10;;;5.50;99.90;;;;;;6210195;23;20341;-64
2023/12/22 06:39:05;;;;;;;2.90;1.23;;;5.50;99.90;;;;;;6209625;23;20090;-65
2023/12/22 06:41:51;;;;;;;4.70;1.90;;;5.50;99.90;;;;;;6209553;23;20005;-64
2023/12/22 06:44:38;;;;;;;2.58;1.10;;;5.50;99.90;;;;;;6209682;23;20036;-64
2023/12/22 06:47:23;;;;;;;1.00;0.85;;;5.50;99.90;;;;;;6208989;23;20017;-65
2023/12/22 06:50:09;;;;;;;2.05;1.45;;;5.50;99.90;;;;;;6207669;23;20113;-63
2023/12/22 06:52:55;;;;;;;4.75;1.20;;;5.50;99.90;;;;;;6210122;23;20008;-64
2023/12/22 06:55:41;;;;;;;4.32;1.63;;;5.40;99.90;;;;;;6210514;23;20008;-64
2023/12/22 06:58:27;;;;;;;4.10;1.13;;;5.40;99.90;;;;;;6209882;23;20020;-64
2023/12/22 07:01:21;;;;;;;3.75;1.20;;;5.40;99.90;;;;;;6208332;23;20020;-64
2023/12/22 07:04:07;;;;;;;3.95;1.20;;;5.40;99.90;;;;;;6186737;23;20008;-63
2023/12/22 07:06:53;;;;;;;1.67;1.30;;;5.40;99.90;;;;;;6190395;23;20015;-64
2023/12/22 07:09:39;;;;;;;2.85;1.13;;;5.40;99.90;;;;;;6210325;23;20232;-63
2023/12/22 07:12:25;;;;;;;4.47;1.50;;;5.50;99.90;;;;;;6209832;23;20028;-63
2023/12/22 07:15:11;;;;;;;4.13;1.35;;;5.50;99.90;;;;;;6190335;23;20004;-63
2023/12/22 07:17:57;;;;;;;6.20;1.58;;;5.50;99.90;;;;;;6207745;23;20036;-62
2023/12/22 07:20:43;;;;;;;4.18;1.35;;;5.60;99.90;;;;;;6208628;23;20047;-63
2023/12/22 07:23:29;;;;;;;3.72;1.15;;;5.50;99.90;;;;;;6209310;23;20103;-63
2023/12/22 07:26:15;;;;;;;5.88;1.73;;;5.50;99.90;;;;;;6209451;23;20008;-61
2023/12/22 07:29:01;;;;;;;3.60;1.42;;;5.50;99.90;;;;;;6209776;23;20012;-63
2023/12/22 07:31:46;;;;;;;7.00;1.75;;;5.50;99.90;;;;;;6209056;23;20015;-64
2023/12/22 07:34:32;;;;;;;5.22;1.65;;;5.50;99.90;;;;;;6209719;23;20027;-62
2023/12/22 07:37:18;;;;;;;4.40;1.60;;;5.60;99.90;;;;;;6209017;23;20013;-63
2023/12/22 07:40:05;;;;;;;3.08;1.08;;;5.60;99.90;;;;;;6188312;23;20013;-63
2023/12/22 07:42:51;;;;;;;6.25;1.48;;;5.60;99.90;;;;;;6208701;23;20010;-63
2023/12/22 07:45:37;;;;;;;5.45;1.80;;;5.60;99.90;;;;;;6209323;23;20016;-61
2023/12/22 07:48:26;;;;;;;1.80;1.40;;;5.60;99.90;;;;;;6209922;23;20088;-63
2023/12/22 07:51:12;;;;;;;7.50;1.83;;;5.60;99.90;;;;;;6186600;23;20008;-62
2023/12/22 07:53:58;;;;;;;6.03;1.77;;;5.60;99.90;;;;;;6210020;23;20047;-62
2023/12/22 07:56:44;;;;;;;4.10;1.50;;;5.70;99.90;;;;;;6189748;23;20012;-63
2023/12/22 07:59:30;;;;;;;9.75;2.40;;;5.70;99.90;;;;;;6209620;23;20051;-63
2023/12/22 08:02:16;;;;;;;3.80;1.45;;;5.70;99.90;;;;;;6209600;23;20074;-61
2023/12/22 08:05:03;;;;;;;3.05;2.00;;;5.70;99.90;;;;;;6209475;23;20095;-63
2023/12/22 08:07:49;;;;;;;6.22;1.80;;;5.70;99.90;;;;;;6209239;23;20012;-63
2023/12/22 08:10:35;;;;;;;6.47;2.08;;;5.80;99.90;;;;;;6207609;23;20016;-63
2023/12/22 08:13:20;;;;;;;3.03;1.55;;;5.70;99.90;;;;;;6208588;23;20024;-62
2023/12/22 08:16:06;;;;;;;2.80;1.30;;;5.70;99.90;;;;;;6209710;23;20019;-63
2023/12/22 08:18:52;;;;;;;4.38;1.30;;;5.70;99.90;;;;;;6196474;23;20048;-63
2023/12/22 08:21:38;;;;;;;3.33;1.45;;;5.70;99.90;;;;;;6211006;23;20016;-63
2023/12/22 08:24:24;;;;;;;4.93;1.40;;;5.70;99.90;;;;;;6211220;23;20008;-62
2023/12/22 08:27:10;;;;;;;2.97;1.23;;;5.70;99.90;;;;;;6211312;23;20020;-63
2023/12/22 08:29:56;;;;;;;2.95;1.40;;;5.70;99.90;;;;;;6210871;23;20015;-62
2023/12/22 08:32:42;;;;;;;1.60;1.00;;;5.70;99.90;;;;;;6212350;23;20015;-62
2023/12/22 08:35:28;;;;;;;3.45;1.25;;;5.70;99.90;;;;;;6208395;23;20005;-63
2023/12/22 08:38:15;;;;;;;4.70;1.33;;;5.70;99.90;;;;;;6211667;23;20021;-62
2023/12/22 08:41:01;;;;;;;6.50;1.73;;;5.70;99.90;;;;;;6211654;23;20016;-62
2023/12/22 08:43:47;;;;;;;6.15;1.70;;;5.70;99.90;;;;;;6210435;23;20622;-63
2023/12/22 08:46:33;;;;;;;3.92;1.63;;;5.70;99.90;;;;;;6211893;23;20008;-63
2023/12/22 08:49:21;;;;;;;10.30;1.98;;;5.70;99.90;;;;;;6211441;23;20009;-64
2023/12/22 08:52:07;;;;;;;3.90;1.77;;;5.70;99.90;;;;;;6211554;23;20080;-63
2023/12/22 08:54:54;;;;;;;3.58;1.67;;;5.70;99.90;;;;;;6210337;23;20016;-61
2023/12/22 08:57:40;;;;;;;11.32;1.90;;;5.70;99.90;;;;;;6211418;23;20035;-62
2023/12/22 09:00:26;;;;;;;9.88;2.30;;;5.80;99.90;;;;;;6212420;23;20027;-62
2023/12/22 09:03:12;;;;;;;10.55;2.17;;;5.80;99.90;;;;;;6211405;23;20322;-63
2023/12/22 09:05:58;;;;;;;9.85;2.42;;;5.80;99.90;;;;;;6209051;23;20058;-62
2023/12/22 09:08:44;;;;;;;5.53;2.17;;;5.80;99.90;;;;;;6210443;23;20091;-62
2023/12/22 09:11:30;;;;;;;5.07;2.30;;;5.80;99.90;;;;;;6209927;23;20036;-63
2023/12/22 09:14:16;;;;;;;3.63;1.63;;;5.80;99.90;;;;;;6211318;23;20088;-63
2023/12/22 09:17:02;;;;;;;9.32;2.40;;;5.80;99.90;;;;;;6211469;23;20009;-62
2023/12/22 09:19:48;;;;;;;6.47;2.17;;;5.90;99.90;;;;;;6211262;23;20017;-62
2023/12/22 09:22:34;;;;;;;5.90;1.85;;;5.90;99.90;;;;;;6210872;23;20333;-62
2023/12/22 09:25:19;;;;;;;8.35;2.50;;;6.00;99.90;;;;;;6211314;23;20353;-61
2023/12/22 09:28:06;;;;;;;5.30;2.63;;;6.00;99.90;;;;;;6209813;23;20018;-62
2023/12/22 09:30:52;;;;;;;7.90;2.22;;;6.00;99.90;;;;;;6211019;23;20095;-62
2023/12/22 09:33:39;;;;;;;7.07;2.15;;;6.10;99.70;;;;;;6210924;23;20091;-62
2023/12/22 09:36:25;;;;;;;7.22;2.20;;;6.00;99.60;;;;;;6210699;23;20012;-62
2023/12/22 09:39:15;;;;;;;6.05;1.98;;;6.10;99.50;;;;;;6210875;23;20024;-62
2023/12/22 09:42:02;;;;;;;7.82;2.05;;;6.10;99.60;;;;;;6211719;23;20005;-63
2023/12/22 09:44:52;;;;;;;11.90;2.17;;;6.10;98.90;;;;;;6188495;23;20021;-63
2023/12/22 09:47:41;;;;;;;7.43;2.78;;;6.10;98.50;;;;;;6210397;23;20080;-63
2023/12/22 09:50:28;;;;;;;6.47;2.40;;;6.20;98.80;;;;;;6210034;23;20318;-62
2023/12/22 09:53:14;;;;;;;6.93;2.65;;;6.20;98.90;;;;;;6208868;23;20016;-63
2023/12/22 09:56:00;;;;;;;8.45;3.17;;;6.20;98.80;;;;;;6209636;23;20005;-63
2023/12/22 09:58:48;;;;;;;5.88;2.25;;;6.20;98.70;;;;;;6210584;23;20148;-62
2023/12/22 10:01:35;;;;;;;5.03;2.08;;;6.20;98.90;;;;;;6209791;23;20009;-63
2023/12/22 10:04:21;;;;;;;8.55;2.22;;;6.30;98.80;;;;;;6210435;23;20027;-62
2023/12/22 10:07:09;;;;;;;10.43;2.63;;;6.30;98.50;;;;;;6208546;23;20035;-63
2023/12/22 10:09:56;;;;;;;8.73;2.53;;;6.30;98.50;;;;;;6209913;23;20015;-62
2023/12/22 10:12:45;;;;;;;8.60;2.75;;;6.40;98.70;;;;;;6209098;23;20027;-63
2023/12/22 10:15:31;;;;;;;8.80;2.03;;;6.40;98.60;;;;;;6209974;23;20008;-63
2023/12/22 10:18:17;;;;;;;4.03;1.98;;;6.40;98.50;;;;;;6209898;23;20027;-62
2023/12/22 10:21:03;;;;;;;8.35;3.47;;;6.40;98.50;;;;;;6187958;23;20012;-63
2023/12/22 10:23:49;;;;;;;9.07;3.05;;;6.40;98.20;;;;;;6210388;23;20434;-63
2023/12/22 10:26:35;;;;;;;7.53;2.60;;;6.50;98.00;;;;;;6189380;23;20066;-63
2023/12/22 10:29:21;;;;;;;7.82;2.60;;;6.50;97.90;;;;;;6208834;23;20067;-62
2023/12/22 10:32:08;;;;;;;10.82;3.35;;;6.40;97.60;;;;;;6208185;23;20035;-62
2023/12/22 10:34:56;;;;;;;6.60;2.42;;;6.40;97.70;;;;;;6210211;23;20009;-63
2023/12/22 10:37:42;;;;;;;10.82;2.53;;;6.50;97.80;;;;;;6208861;23;20128;-62
2023/12/22 10:40:29;;;;;;;11.63;3.30;;;6.50;97.40;;;;;;6209365;23;20012;-62
2023/12/22 10:43:15;;;;;;;15.13;3.30;;;6.50;97.40;;;;;;6209904;23;20090;-62
2023/12/22 10:46:02;;;;;;;9.38;3.30;;;6.50;97.40;;;;;;6190591;23;20043;-62
2023/12/22 10:48:47;;;;;;;6.55;2.20;;;6.60;97.40;;;;;;6209990;23;20019;-64
2023/12/22 10:51:33;;;;;;;8.95;3.58;;;6.60;97.30;;;;;;6209394;23;20047;-62
2023/12/22 10:54:19;;;;;;;10.93;3.10;;;6.60;97.10;;;;;;6210522;23;20319;-61
2023/12/22 10:57:05;;;;;;;13.20;2.70;;;6.60;97.10;;;;;;6209212;23;20450;-61
2023/12/22 10:59:52;;;;;;;9.35;3.58;;;6.70;97.30;;;;;;6196421;23;20377;-62
2023/12/22 11:02:42;;;;;;;7.50;1.98;;;6.70;96.80;;;;;;6209766;23;20069;-62
2023/12/22 11:05:29;;;;;;;7.57;2.33;;;6.70;96.90;;;;;;6210679;23;20019;-62
2023/12/22 11:08:17;;;;;;;5.45;2.08;;;6.70;96.90;;;;;;6208526;23;20005;-62
2023/12/22 11:11:21;;;;;;;6.95;1.88;;;6.80;96.80;;;;;;6210006;23;20012;-62
2023/12/22 11:14:07;;;;;;;10.30;3.33;;;6.80;96.40;;;;;;6209464;23;20031;-61
2023/12/22 11:16:54;;;;;;;5.88;2.78;;;6.70;96.30;;;;;;6197969;23;20453;-62
2023/12/22 11:19:41;;;;;;;7.97;2.58;;;6.70;96.30;;;;;;6209577;23;20087;-62
2023/12/22 11:22:31;;;;;;;6.18;2.55;;;6.70;96.30;;;;;;6209927;23;20004;-61
2023/12/22 11:25:18;;;;;;;10.15;2.15;;;6.70;96.10;;;;;;6208538;23;20389;-61
2023/12/22 11:28:06;;;;;;;7.80;2.85;;;6.60;96.00;;;;;;6207918;23;20008;-62
2023/12/22 11:30:55;;;;;;;11.15;2.60;;;6.60;96.10;;;;;;6208855;23;20013;-62
2023/12/22 11:33:48;;;;;;;8.55;3.40;;;6.60;96.10;;;;;;6209582;23;20223;-62
2023/12/22 11:36:36;;;;;;;8.10;2.60;;;6.60;95.90;;;;;;6210231;23;20389;-61
2023/12/22 11:39:22;;;;;;;7.05;3.08;;;6.60;96.00;;;;;;6209267;23;20017;-62
2023/12/22 11:42:25;;;;;;;6.88;2.67;;;6.60;96.20;;;;;;6209577;23;20075;-62
2023/12/22 11:45:12;;;;;;;6.40;2.13;;;6.60;95.70;;;;;;6211136;23;20048;-62
2023/12/22 11:48:06;;;;;;;7.30;2.45;;;6.60;95.70;;;;;;6208886;23;20008;-63
2023/12/22 11:50:52;;;;;;;6.93;2.75;;;6.60;95.80;;;;;;6210062;23;20016;-63
2023/12/22 11:53:38;;;;;;;8.20;2.00;;;6.60;95.80;;;;;;6209375;23;20009;-63
2023/12/22 11:56:24;;;;;;;6.60;2.45;;;6.70;95.50;;;;;;6210284;23;20507;-62
2023/12/22 11:59:11;;;;;;;9.15;2.42;;;6.70;95.60;;;;;;6211923;23;20021;-61
2023/12/22 12:01:56;;;;;;;6.43;2.30;;;6.70;95.70;;;;;;6212239;23;20376;-62
2023/12/22 12:04:42;;;;;;;8.90;2.33;;;6.70;95.70;;;;;;6208688;23;20424;-61
2023/12/22 12:07:44;;;;;;;8.10;2.08;;;6.70;95.80;;;;;;6211036;23;20027;-61
2023/12/22 15:53:32;;;;;;;8.05;2.90;;;5.90;97.10;;;;;;6189433;23;20032;-63
2023/12/22 15:56:18;;;;;;;7.30;2.15;;;5.90;97.20;;;;;;6183045;23;20018;-63
2023/12/22 15:59:04;;;;;;;5.97;2.70;;;5.90;97.30;;;;;;6182555;23;20048;-63
2023/12/22 16:01:50;;;;;;;7.03;2.13;;;5.90;97.30;;;;;;6183779;23;20009;-63
2023/12/22 16:04:36;;;;;;;11.77;2.88;;;6.00;97.40;;;;;;6180971;23;20386;-64
2023/12/22 16:07:23;;;;;;;7.20;2.67;;;6.00;97.40;;;;;;6182472;23;20016;-63
2023/12/22 16:10:10;;;;;;;7.28;2.75;;;6.00;97.50;;;;;;6182984;23;20013;-63
2023/12/22 16:12:56;;;;;;;11.75;3.30;;;6.00;97.50;;;;;;6182866;23;20059;-61
2023/12/22 16:15:42;;;;;;;11.20;3.83;;;6.00;97.50;;;;;;6184942;23;20040;-63
2023/12/22 16:18:28;;;;;;;9.02;2.55;;;6.00;97.50;;;;;;6179712;23;20079;-63
2023/12/22 16:21:14;;;;;;;7.15;2.95;;;6.00;97.50;;;;;;6181887;23;20016;-63
2023/12/22 16:24:00;;;;;;;5.88;2.38;;;6.00;97.60;;;;;;6181637;23;20024;-63
2023/12/22 16:26:47;;;;;;;6.68;2.50;;;6.00;97.60;;;;;;6184762;23;20009;-64
2023/12/22 16:29:33;;;;;;;8.18;2.63;;;6.00;97.80;;;;;;6182998;23;20017;-65
2023/12/22 16:32:20;;;;;;;8.98;3.13;;;6.00;97.70;;;;;;6182166;23;20013;-64
2023/12/22 16:35:07;;;;;;;8.77;2.38;;;5.90;97.80;;;;;;6183254;23;20013;-64
2023/12/22 16:37:52;;;;;;;4.47;2.28;;;5.90;97.60;;;;;;6182265;23;20024;-64
2023/12/22 16:40:39;;;;;;;3.88;2.00;;;6.00;97.60;;;;;;6183571;23;20473;-64
2023/12/22 16:43:25;;;;;;;4.45;2.30;;;6.00;97.60;;;;;;6181077;23;20017;-64
2023/12/22 16:46:11;;;;;;;8.88;2.80;;;5.90;97.60;;;;;;6184648;23;20005;-63
2023/12/22 16:48:57;;;;;;;9.20;2.03;;;5.90;97.60;;;;;;6182321;23;20013;-63
2023/12/22 16:51:43;;;;;;;4.95;1.88;;;5.90;97.70;;;;;;6182949;23;20084;-64
2023/12/22 16:54:29;;;;;;;5.60;2.00;;;6.00;97.60;;;;;;6202812;23;20074;-63
2023/12/22 16:57:15;;;;;;;5.13;1.85;;;6.00;97.60;;;;;;6210863;23;20386;-63
2023/12/22 17:00:01;;;;;;;4.38;2.15;;;6.00;97.60;;;;;;6210728;23;20103;-64
2023/12/22 17:02:47;;;;;;;7.85;2.85;;;6.00;97.60;;;;;;6210272;23;20019;-64
2023/12/22 17:05:32;;;;;;;4.75;1.92;;;5.90;97.50;;;;;;6211515;23;20062;-65
2023/12/22 17:08:19;;;;;;;5.72;1.95;;;6.00;97.60;;;;;;6210622;23;20384;-64
2023/12/22 17:11:04;;;;;;;7.22;2.10;;;5.90;97.50;;;;;;6210425;23;20035;-66
2023/12/22 17:13:50;;;;;;;5.25;1.77;;;5.90;97.70;;;;;;6210752;23;20372;-64
2023/12/22 17:16:40;;;;;;;7.40;2.88;;;5.90;97.70;;;;;;6208582;23;20026;-65
2023/12/22 17:19:25;;;;;;;8.57;2.50;;;6.00;97.80;;;;;;6211138;23;20021;-65
2023/12/22 17:22:11;;;;;;;5.00;1.90;;;6.00;97.80;;;;;;6210157;23;20012;-64
2023/12/22 17:24:57;;;;;;;5.85;2.28;;;6.00;97.80;;;;;;6209893;23;20356;-64
2023/12/22 17:27:45;;;;;;;5.78;2.05;;;6.10;97.80;;;;;;6209352;23;20099;-64
2023/12/22 17:30:31;;;;;;;5.68;2.25;;;6.10;97.70;;;;;;6209443;23;20013;-63
2023/12/22 17:33:17;;;;;;;6.97;2.55;;;6.10;97.70;;;;;;6212503;23;20012;-62
2023/12/22 17:36:04;;;;;;;11.43;1.90;;;6.10;97.80;;;;;;6210905;23;20023;-63
2023/12/22 17:38:50;;;;;;;4.55;2.00;;;6.10;97.70;;;;;;6210306;23;20104;-63
2023/12/22 17:41:36;;;;;;;8.23;2.33;;;6.10;97.70;;;;;;6211794;23;20012;-63
2023/12/22 17:44:22;;;;;;;4.93;2.22;;;6.10;97.70;;;;;;6210198;23;20012;-64
2023/12/22 17:47:07;;;;;;;6.20;2.10;;;6.10;97.70;;;;;;6188409;23;20066;-64
2023/12/22 17:49:53;;;;;;;7.43;2.05;;;6.00;97.60;;;;;;6209468;23;20013;-63
2023/12/22 17:52:39;;;;;;;5.32;2.22;;;6.00;97.60;;;;;;6207763;23;20031;-60
2023/12/22 17:55:25;;;;;;;5.28;2.75;;;6.00;97.60;;;;;;6210076;23;20005;-63
2023/12/22 17:58:11;;;;;;;6.40;2.20;;;6.00;97.60;;;;;;6208561;23;20039;-63
2023/12/22 18:00:57;;;;;;;9.80;2.58;;;6.00;97.60;;;;;;6210712;23;20031;-63
2023/12/22 18:03:43;;;;;;;4.07;2.33;;;6.00;97.50;;;;;;6210309;23;20023;-63
2023/12/22 18:06:29;;;;;;;7.20;2.47;;;5.90;97.50;;;;;;6210867;23;20070;-63
2023/12/22 18:09:15;;;;;;;7.57;2.42;;;5.90;97.60;;;;;;6209354;23;20016;-63
2023/12/22 18:12:01;;;;;;;6.03;2.20;;;6.00;97.70;;;;;;6209464;23;20009;-64
2023/12/22 18:14:47;;;;;;;6.38;2.20;;;6.00;97.70;;;;;;6209809;23;20429;-63
2023/12/22 18:17:33;;;;;;;6.53;1.92;;;6.00;97.60;;;;;;6188492;23;20021;-64
2023/12/22 18:20:21;;;;;;;6.65;2.38;;;6.00;97.60;;;;;;6209357;23;20037;-63